Aérodrome :







RETROUVEZ-NOUS SUR...

 
LOGIN :

S'inscrire | Disclaimer

   EN    FR    IT 

 









Légende :    VFR   VFR Marginal   IFR   IFR Intensif   IFR Très Intensif
Visi : 
Plafond : 
>= 8 km
>= 3000ft
5 à 8 km
1000 à 3000 ft
1500m à 5 km
500 à 1000 ft
800 à 1500m
200 à 500 ft
< 800m
< 200 ft
Symboles :   Orages  Brouillard  Fortes neiges  Fortes précipitations  Vent > 20 kt






- Altitude de l'aérodrome : 240 ft
- Code IATA : LRM


MDLR - Casa de Campo Int.

DERNIER METAR :
  • 061700Z 00000KT 9999 BKN020 SCT300 29/25 Q1016

METARs EXPIRÉS :
  • 061600Z 06008KT 9999 SCT018 SCT300 29/26 Q1017
  • 061500Z 09004KT 9999 BKN018 SCT300 28/26 Q1017

TAF TAF MDLR
Valide du 06 à 18h jusqu'au 07 à 18h UTC


061600Z 0618/0718 06010KT 9999 SCT020
PROB30 0618/0700 7000 -RA FEW016CB BKN018
BECMG 0701/0703 00000KT



MET'MAP, la Météo Aéronautique d'un coup d'oeil ! - Copyright ORBIFLY Décembre 2007 - Disclaimer

ORBIFLY MET'MAP TEAM :

Programmation & Développement : Alexandra Zaïnal
Sur une idée originale de : Baudouin d'Aumeries
Assistance à la programmation : Marc-Olivier Méhu
Soutien technique & logistique : Manuel Goepfert

Contact : metmap@orbifly.com




SOURCES & CREDITS :

   NOAA